createdAt,value
2022-08-20T00:03:29.865Z,4.07
2022-08-20T00:13:35.269Z,3.40
2022-08-20T00:23:37.547Z,3.60
2022-08-20T00:33:39.304Z,3.35
2022-08-20T00:43:42.631Z,3.15
2022-08-20T00:53:44.299Z,3.47
2022-08-20T01:03:45.670Z,4.13
2022-08-20T01:13:47.119Z,3.65
2022-08-20T01:24:08.679Z,4.72
2022-08-20T01:34:12.727Z,4.85
2022-08-20T01:44:18.311Z,4.78
2022-08-20T01:54:20.289Z,6.13
2022-08-20T02:04:21.668Z,6.95
2022-08-20T02:14:23.502Z,7.25
2022-08-20T02:24:25.122Z,7.82
2022-08-20T02:34:26.468Z,9.80
2022-08-20T02:44:27.788Z,10.57
2022-08-20T02:54:29.091Z,10.65
2022-08-20T03:04:30.432Z,11.20
2022-08-20T03:14:31.900Z,12.07
2022-08-20T03:24:33.212Z,11.63
2022-08-20T03:34:34.574Z,11.73
2022-08-20T03:44:35.900Z,12.02
2022-08-20T03:54:37.217Z,11.80
2022-08-20T04:04:39.459Z,11.55
2022-08-20T04:14:40.768Z,10.73
2022-08-20T04:24:43.102Z,12.02
2022-08-20T04:34:44.395Z,12.65
2022-08-20T04:44:48.652Z,11.65
2022-08-20T04:54:49.965Z,11.20
2022-08-20T05:04:51.272Z,12.27
2022-08-20T05:14:52.576Z,12.55
2022-08-20T05:24:54.041Z,14.13
2022-08-20T05:34:55.363Z,13.15
2022-08-20T05:44:56.710Z,13.98
2022-08-20T05:54:57.995Z,14.18
2022-08-20T06:04:59.325Z,14.35
2022-08-20T06:15:00.690Z,10.52
2022-08-20T06:25:02.634Z,12.25
2022-08-20T06:35:05.796Z,12.35
2022-08-20T06:45:08.463Z,12.77
2022-08-20T06:55:10.672Z,10.30
2022-08-20T07:05:12.304Z,7.38
2022-08-20T07:15:13.935Z,6.30
2022-08-20T07:25:17.104Z,4.75
2022-08-20T07:35:18.650Z,3.75
2022-08-20T07:45:20.010Z,3.83
2022-08-20T07:55:21.607Z,2.80
2022-08-20T08:05:22.966Z,1.98
2022-08-20T08:15:26.174Z,2.83
2022-08-20T08:25:27.573Z,2.65
2022-08-20T08:35:28.931Z,2.30
2022-08-20T08:45:45.050Z,2.10
2022-08-20T08:55:47.738Z,2.40
2022-08-20T09:05:53.802Z,2.10
2022-08-20T09:15:55.151Z,2.28
2022-08-20T09:25:56.902Z,2.85
2022-08-20T09:35:58.294Z,2.50
2022-08-20T09:45:59.600Z,2.70
2022-08-20T09:56:00.912Z,3.15
2022-08-20T10:06:02.399Z,1.92
2022-08-20T10:16:04.380Z,1.88
2022-08-20T10:26:07.153Z,2.42
2022-08-20T10:36:09.546Z,2.05
2022-08-20T10:46:10.877Z,1.60
2022-08-20T10:56:15.529Z,1.55
2022-08-20T11:06:17.114Z,1.27
2022-08-20T11:16:18.498Z,1.38
2022-08-20T11:26:24.574Z,1.10
2022-08-20T11:36:25.882Z,1.20
2022-08-20T11:46:28.671Z,1.50
2022-08-20T11:56:30.146Z,1.10
2022-08-20T12:06:31.461Z,0.80
2022-08-20T12:16:32.805Z,0.80
2022-08-20T12:26:34.151Z,2.28
2022-08-20T12:36:35.454Z,1.00
2022-08-20T12:46:36.759Z,1.52
2022-08-20T12:56:38.096Z,1.10
2022-08-20T13:06:39.400Z,1.08
2022-08-20T13:16:41.755Z,0.80
2022-08-20T13:26:43.107Z,1.30
2022-08-20T13:36:44.397Z,1.00
2022-08-20T13:46:45.709Z,0.80
2022-08-20T13:56:47.095Z,1.27
2022-08-20T14:06:48.394Z,1.13
2022-08-20T14:16:49.719Z,1.33
2022-08-20T14:26:51.022Z,1.58
2022-08-20T14:36:52.327Z,1.80
2022-08-20T14:46:53.627Z,1.48
2022-08-20T14:57:01.697Z,1.70
2022-08-20T15:07:07.959Z,1.73
2022-08-20T15:17:10.815Z,1.20
2022-08-20T15:27:21.798Z,1.13
2022-08-20T15:37:24.193Z,3.53
2022-08-20T15:47:30.118Z,1.42
2022-08-20T15:57:34.514Z,1.30
2022-08-20T16:07:41.829Z,1.05
2022-08-20T16:17:49.151Z,0.90
2022-08-20T16:27:50.427Z,0.70
2022-08-20T16:38:21.117Z,0.88
2022-08-20T16:48:22.662Z,1.20
2022-08-20T16:58:27.769Z,1.08
2022-08-20T17:08:33.296Z,1.38
2022-08-20T17:18:37.327Z,0.82
2022-08-20T17:28:47.932Z,0.73
2022-08-20T17:38:59.705Z,0.80
2022-08-20T17:49:04.627Z,0.60
2022-08-20T17:59:10.463Z,0.98
2022-08-20T18:09:17.684Z,0.95
2022-08-20T18:19:33.219Z,0.85
2022-08-20T18:29:36.163Z,1.00
2022-08-20T18:39:43.267Z,2.45
2022-08-20T18:49:44.631Z,0.90
2022-08-20T18:59:47.704Z,1.00
2022-08-20T19:10:04.096Z,1.65
2022-08-20T19:20:07.505Z,1.60
2022-08-20T19:30:09.138Z,1.17
2022-08-20T19:40:28.501Z,2.28
2022-08-20T19:50:39.369Z,0.95
2022-08-20T20:00:43.394Z,1.47
2022-08-20T20:10:49.715Z,1.52
2022-08-20T20:20:57.012Z,1.40
2022-08-20T20:31:07.027Z,1.23
2022-08-20T20:41:18.261Z,2.28
2022-08-20T21:01:27.329Z,2.00
2022-08-20T21:21:43.565Z,2.92
2022-08-20T21:31:45.458Z,2.47
2022-08-20T21:41:47.942Z,1.83
2022-08-20T21:51:49.709Z,2.70
2022-08-20T22:01:51.601Z,2.33
2022-08-20T22:11:54.690Z,2.30
2022-08-20T22:21:57.934Z,2.75
2022-08-20T22:31:59.879Z,2.55
2022-08-20T22:42:01.285Z,1.98
2022-08-20T23:02:08.403Z,3.53
2022-08-20T23:12:09.931Z,2.00
2022-08-20T23:22:11.334Z,2.90
2022-08-20T23:32:12.935Z,2.55
2022-08-20T23:42:14.335Z,3.20
2022-08-20T23:52:15.694Z,5.38
